createdAt,value
2019-02-02T00:02:20.384Z,32.00
2019-02-02T00:05:06.496Z,31.80
2019-02-02T00:07:52.194Z,31.70
2019-02-02T00:10:37.831Z,31.70
2019-02-02T00:13:23.928Z,32.00
2019-02-02T00:16:09.843Z,32.20
2019-02-02T00:18:56.880Z,32.30
2019-02-02T00:21:43.188Z,32.20
2019-02-02T00:24:28.983Z,32.00
2019-02-02T00:27:15.195Z,31.90
2019-02-02T00:30:02.367Z,31.80
2019-02-02T00:32:48.663Z,31.80
2019-02-02T00:35:34.813Z,31.70
2019-02-02T00:38:21.112Z,31.50
2019-02-02T00:41:14.096Z,31.50
2019-02-02T00:44:00.363Z,31.30
2019-02-02T00:46:46.422Z,31.30
2019-02-02T00:49:32.275Z,31.30
2019-02-02T00:52:18.003Z,31.30
2019-02-02T00:55:04.843Z,31.10
2019-02-02T00:57:54.115Z,31.00
2019-02-02T01:00:39.087Z,31.00
2019-02-02T01:03:25.171Z,30.90
2019-02-02T01:06:11.271Z,30.90
2019-02-02T01:08:56.998Z,30.80
2019-02-02T01:11:43.266Z,30.80
2019-02-02T01:14:29.212Z,30.90
2019-02-02T01:17:15.267Z,30.90
2019-02-02T01:20:01.347Z,30.80
2019-02-02T01:22:48.059Z,30.80
2019-02-02T01:25:34.243Z,30.80
2019-02-02T01:28:20.146Z,30.80
2019-02-02T01:31:05.925Z,30.80
2019-02-02T01:33:52.211Z,30.80
2019-02-02T01:36:38.268Z,30.60
2019-02-02T01:39:24.019Z,30.60
2019-02-02T01:42:09.977Z,30.50
2019-02-02T01:44:56.119Z,30.40
2019-02-02T01:47:42.021Z,30.30
2019-02-02T01:50:28.070Z,30.30
2019-02-02T01:53:13.903Z,30.30
2019-02-02T01:55:59.976Z,30.20
2019-02-02T01:58:46.095Z,30.20
2019-02-02T02:01:32.192Z,30.20
2019-02-02T02:04:18.224Z,30.20
2019-02-02T02:07:05.783Z,30.30
2019-02-02T02:09:51.479Z,30.30
2019-02-02T02:12:37.367Z,30.30
2019-02-02T02:15:23.208Z,30.30
2019-02-02T02:18:09.098Z,30.30
2019-02-02T02:20:55.139Z,30.30
2019-02-02T02:23:41.244Z,30.30
2019-02-02T02:26:26.959Z,30.30
2019-02-02T02:29:12.753Z,30.30
2019-02-02T02:31:58.453Z,30.30
2019-02-02T02:34:44.579Z,30.30
2019-02-02T02:37:30.347Z,30.40
2019-02-02T02:40:18.560Z,30.40
2019-02-02T02:43:04.743Z,30.80
2019-02-02T02:45:52.457Z,30.50
2019-02-02T02:48:38.464Z,30.50
2019-02-02T02:51:24.423Z,30.60
2019-02-02T02:54:09.947Z,30.70
2019-02-02T02:56:56.780Z,30.50
2019-02-02T02:59:42.961Z,30.60
2019-02-02T03:02:29.035Z,30.60
2019-02-02T03:05:14.879Z,30.60
2019-02-02T03:08:00.777Z,30.60
2019-02-02T03:10:46.604Z,30.60
2019-02-02T03:13:32.881Z,30.60
2019-02-02T03:16:18.762Z,30.70
2019-02-02T03:19:04.991Z,30.70
2019-02-02T03:21:51.019Z,30.70
2019-02-02T03:24:36.899Z,30.80
2019-02-02T03:27:22.635Z,30.70
2019-02-02T03:30:11.403Z,30.80
2019-02-02T03:32:57.373Z,30.80
2019-02-02T03:35:43.379Z,30.80
2019-02-02T03:38:29.300Z,30.80
2019-02-02T03:41:15.163Z,30.80
2019-02-02T03:44:01.118Z,30.80
2019-02-02T03:46:46.947Z,30.80
2019-02-02T03:49:32.852Z,30.90
2019-02-02T03:52:19.028Z,30.90
2019-02-02T03:55:05.471Z,30.90
2019-02-02T03:57:51.153Z,30.90
2019-02-02T04:00:37.113Z,30.90
2019-02-02T04:03:22.773Z,30.90
2019-02-02T04:06:08.844Z,30.90
2019-02-02T04:08:55.020Z,30.70
2019-02-02T04:11:43.423Z,30.50
2019-02-02T04:14:29.100Z,30.40
2019-02-02T04:17:14.923Z,30.20
2019-02-02T04:20:01.035Z,30.00
2019-02-02T04:22:47.081Z,30.00
2019-02-02T04:25:33.007Z,29.90
2019-02-02T04:28:18.847Z,29.90
2019-02-02T04:31:04.875Z,29.90
2019-02-02T04:33:50.848Z,29.80
2019-02-02T04:36:37.303Z,29.90
2019-02-02T04:39:23.515Z,29.90
2019-02-02T04:42:09.371Z,29.90
2019-02-02T04:44:55.182Z,30.00
2019-02-02T04:47:41.427Z,30.00
2019-02-02T04:50:27.806Z,30.00
2019-02-02T04:53:13.985Z,29.90
2019-02-02T04:55:59.920Z,30.00
2019-02-02T04:58:46.358Z,30.00
2019-02-02T05:01:32.126Z,29.90
2019-02-02T05:04:18.359Z,29.90
2019-02-02T05:07:04.283Z,30.00
2019-02-02T05:09:49.987Z,30.00
2019-02-02T05:12:36.067Z,30.00
2019-02-02T05:15:22.281Z,30.00
2019-02-02T05:18:08.098Z,30.00
2019-02-02T05:20:54.067Z,30.00
2019-02-02T05:23:39.823Z,30.10
2019-02-02T05:26:25.803Z,30.00
2019-02-02T05:29:11.772Z,30.00
2019-02-02T05:31:57.683Z,30.00
2019-02-02T05:34:43.496Z,30.10
2019-02-02T05:37:29.883Z,30.10
2019-02-02T05:40:16.482Z,30.10
2019-02-02T05:43:02.296Z,30.10
2019-02-02T05:45:48.236Z,30.10
2019-02-02T05:48:33.931Z,30.20
2019-02-02T05:51:19.987Z,30.10
2019-02-02T05:54:05.829Z,30.20
2019-02-02T05:56:51.687Z,30.20
2019-02-02T05:59:37.823Z,30.20
2019-02-02T06:02:23.858Z,30.20
2019-02-02T06:05:10.328Z,30.20
2019-02-02T06:07:56.051Z,30.30
2019-02-02T06:10:42.025Z,30.40
2019-02-02T06:13:27.879Z,30.40
2019-02-02T06:16:13.979Z,30.40
2019-02-02T06:19:00.222Z,30.30
2019-02-02T06:21:46.676Z,30.30
2019-02-02T06:24:32.417Z,30.30
2019-02-02T06:27:18.327Z,30.10
2019-02-02T06:30:08.051Z,30.00
2019-02-02T06:32:54.084Z,30.00
2019-02-02T06:35:39.815Z,30.30
2019-02-02T06:38:26.323Z,29.80
2019-02-02T06:41:12.578Z,29.70
2019-02-02T06:43:58.719Z,30.00
2019-02-02T06:46:44.465Z,29.50
2019-02-02T06:49:30.538Z,29.50
2019-02-02T06:52:16.995Z,29.50
2019-02-02T06:55:03.511Z,29.50
2019-02-02T06:57:49.407Z,29.60
2019-02-02T07:00:35.684Z,29.60
2019-02-02T07:03:21.780Z,29.70
2019-02-02T07:06:07.484Z,29.70
2019-02-02T07:08:53.596Z,29.70
2019-02-02T07:11:40.083Z,29.70
2019-02-02T07:14:25.911Z,29.70
2019-02-02T07:17:11.763Z,29.70
2019-02-02T07:19:57.683Z,29.70
2019-02-02T07:22:43.797Z,29.70
2019-02-02T07:25:29.796Z,29.70
2019-02-02T07:28:15.631Z,29.70
2019-02-02T07:31:01.469Z,29.80
2019-02-02T07:33:47.623Z,29.80
2019-02-02T07:36:33.697Z,29.80
2019-02-02T07:39:20.392Z,29.80
2019-02-02T07:42:06.606Z,29.90
2019-02-02T07:44:53.226Z,29.90
2019-02-02T07:47:39.303Z,30.00
2019-02-02T07:50:25.444Z,30.00
2019-02-02T07:53:11.411Z,29.90
2019-02-02T07:55:57.458Z,30.00
2019-02-02T07:58:43.127Z,30.00
2019-02-02T08:01:28.885Z,30.00
2019-02-02T08:04:14.724Z,30.00
2019-02-02T08:07:00.884Z,30.00
2019-02-02T08:09:47.253Z,30.00
2019-02-02T08:12:33.984Z,30.00
2019-02-02T08:15:22.702Z,30.00
2019-02-02T08:18:08.683Z,30.10
2019-02-02T08:20:54.999Z,30.90
2019-02-02T08:23:41.142Z,30.40
2019-02-02T08:26:26.796Z,30.60
2019-02-02T08:29:13.012Z,30.70
2019-02-02T08:31:59.551Z,30.60
2019-02-02T08:34:45.767Z,30.60
2019-02-02T08:37:32.319Z,30.60
2019-02-02T08:40:18.661Z,30.50
2019-02-02T08:43:20.638Z,30.40
2019-02-02T08:46:07.516Z,30.40
2019-02-02T08:48:54.034Z,30.40
2019-02-02T08:51:40.447Z,30.40
2019-02-02T08:54:28.920Z,30.30
2019-02-02T08:57:37.274Z,30.40
2019-02-02T09:00:23.767Z,30.50
2019-02-02T09:03:09.532Z,30.90
2019-02-02T09:05:55.680Z,31.20
2019-02-02T09:08:42.172Z,31.30
2019-02-02T09:11:28.187Z,31.40
2019-02-02T09:14:14.264Z,31.50
2019-02-02T09:17:00.435Z,31.60
2019-02-02T09:19:46.809Z,31.60
2019-02-02T09:22:33.188Z,31.60
2019-02-02T09:25:19.688Z,31.60
2019-02-02T09:28:05.614Z,31.50
2019-02-02T09:30:51.544Z,31.80
2019-02-02T09:33:19.347Z,31.80
2019-02-02T09:35:47.016Z,31.80
2019-02-02T09:38:15.443Z,32.00
2019-02-02T09:40:42.574Z,32.00
2019-02-02T09:43:13.055Z,32.10
2019-02-02T09:45:43.763Z,32.20
2019-02-02T09:48:10.977Z,32.30
2019-02-02T09:50:38.163Z,32.10
2019-02-02T09:53:05.586Z,32.10
2019-02-02T09:55:34.482Z,32.00
2019-02-02T09:58:08.456Z,32.30
2019-02-02T10:00:34.721Z,31.80
2019-02-02T10:03:02.126Z,31.70
2019-02-02T10:05:30.256Z,31.60
2019-02-02T10:07:57.540Z,31.50
2019-02-02T10:10:42.172Z,31.50
2019-02-02T10:13:17.992Z,31.60
2019-02-02T10:15:46.121Z,31.50
2019-02-02T10:18:13.423Z,31.50
2019-02-02T10:20:40.695Z,31.40
2019-02-02T10:23:07.959Z,31.40
2019-02-02T10:25:45.804Z,31.40
2019-02-02T10:28:24.339Z,31.40
2019-02-02T10:31:02.615Z,32.00
2019-02-02T10:34:05.791Z,31.50
2019-02-02T10:36:34.110Z,31.40
2019-02-02T10:39:04.743Z,31.80
2019-02-02T10:41:34.072Z,31.50
2019-02-02T10:44:01.673Z,31.40
2019-02-02T10:46:29.171Z,31.60
2019-02-02T10:48:56.449Z,31.40
2019-02-02T10:51:46.178Z,31.90
2019-02-02T10:54:18.226Z,31.60
2019-02-02T10:56:45.759Z,31.80
2019-02-02T10:59:13.487Z,31.80
2019-02-02T11:01:50.791Z,32.50
2019-02-02T11:04:13.056Z,31.70
2019-02-02T11:06:40.618Z,31.40
2019-02-02T11:09:08.486Z,31.70
2019-02-02T11:11:36.397Z,31.00
2019-02-02T11:14:04.114Z,31.50
2019-02-02T11:16:31.731Z,31.60
2019-02-02T11:19:17.745Z,31.50
2019-02-02T11:22:04.094Z,31.30
2019-02-02T11:24:49.897Z,31.10
2019-02-02T11:27:35.740Z,30.80
2019-02-02T11:30:23.797Z,30.60
2019-02-02T11:33:09.711Z,30.60
2019-02-02T11:35:55.714Z,30.50
2019-02-02T11:38:42.017Z,30.30
2019-02-02T11:41:28.006Z,30.10
2019-02-02T11:44:13.980Z,30.10
2019-02-02T11:47:00.644Z,30.00
2019-02-02T11:49:47.144Z,30.00
2019-02-02T11:52:33.528Z,30.00
2019-02-02T11:55:19.795Z,30.00
2019-02-02T11:58:05.801Z,30.00
2019-02-02T12:00:51.686Z,30.00
2019-02-02T12:03:38.338Z,30.00
2019-02-02T12:06:24.590Z,30.00
2019-02-02T12:09:11.225Z,30.00
2019-02-02T12:11:38.757Z,30.10
2019-02-02T12:14:06.012Z,30.00
2019-02-02T12:16:33.323Z,30.10
2019-02-02T12:19:01.371Z,30.10
2019-02-02T12:21:28.809Z,30.60
2019-02-02T12:23:57.366Z,30.10
2019-02-02T12:26:25.075Z,30.10
2019-02-02T12:28:52.168Z,30.00
2019-02-02T12:31:19.552Z,30.00
2019-02-02T12:33:47.084Z,30.00
2019-02-02T12:36:14.302Z,30.00
2019-02-02T12:38:42.721Z,30.00
2019-02-02T12:41:11.311Z,30.00
2019-02-02T12:43:38.636Z,30.00
2019-02-02T12:46:06.108Z,30.00
2019-02-02T12:48:33.304Z,30.00
2019-02-02T12:51:00.768Z,30.10
2019-02-02T12:53:27.958Z,30.10
2019-02-02T12:55:55.275Z,30.10
2019-02-02T12:58:22.491Z,30.00
2019-02-02T13:00:49.822Z,30.00
2019-02-02T13:03:20.898Z,30.10
2019-02-02T13:05:49.371Z,30.00
2019-02-02T13:08:16.687Z,30.10
2019-02-02T13:10:43.882Z,30.00
2019-02-02T13:13:11.316Z,30.10
2019-02-02T13:15:38.804Z,30.10
2019-02-02T13:18:06.436Z,30.30
2019-02-02T13:20:33.727Z,30.30
2019-02-02T13:23:01.039Z,30.30
2019-02-02T13:25:28.247Z,30.10
2019-02-02T13:27:55.435Z,30.10
2019-02-02T13:30:41.534Z,30.10
2019-02-02T13:33:27.496Z,30.00
2019-02-02T13:36:13.412Z,30.10
2019-02-02T13:38:59.411Z,30.10
2019-02-02T13:41:45.411Z,30.00
2019-02-02T13:44:31.251Z,30.00
2019-02-02T13:47:17.207Z,30.10
2019-02-02T13:50:04.642Z,30.00
2019-02-02T13:52:51.041Z,30.00
2019-02-02T13:55:39.809Z,30.00
2019-02-02T13:58:25.004Z,30.00
2019-02-02T14:01:10.919Z,30.00
2019-02-02T14:03:56.735Z,30.10
2019-02-02T14:06:42.687Z,30.10
2019-02-02T14:09:29.008Z,30.40
2019-02-02T14:12:14.911Z,30.40
2019-02-02T14:15:01.319Z,30.40
2019-02-02T14:17:47.079Z,30.50
2019-02-02T14:20:32.863Z,30.30
2019-02-02T14:23:18.975Z,30.20
2019-02-02T14:26:05.068Z,30.20
2019-02-02T14:28:51.095Z,30.20
2019-02-02T14:31:37.587Z,30.30
2019-02-02T14:34:23.341Z,30.30
2019-02-02T14:37:09.370Z,30.30
2019-02-02T14:39:55.296Z,30.60
2019-02-02T14:42:41.199Z,30.30
2019-02-02T14:45:28.037Z,30.40
2019-02-02T14:48:14.491Z,30.40
2019-02-02T14:51:00.483Z,30.40
2019-02-02T14:53:46.553Z,30.90
2019-02-02T14:56:32.511Z,30.60
2019-02-02T14:59:18.875Z,30.60
2019-02-02T15:02:04.735Z,30.60
2019-02-02T15:04:50.913Z,30.50
2019-02-02T15:07:36.984Z,30.60
2019-02-02T15:10:24.419Z,30.80
2019-02-02T15:13:10.712Z,30.60
2019-02-02T15:15:56.931Z,30.50
2019-02-02T15:18:42.965Z,30.60
2019-02-02T15:21:29.147Z,30.50
2019-02-02T15:24:15.072Z,30.50
2019-02-02T15:27:01.531Z,30.60
2019-02-02T15:29:47.605Z,30.70
2019-02-02T15:32:33.632Z,30.60
2019-02-02T15:35:19.444Z,30.80
2019-02-02T15:38:05.517Z,30.90
2019-02-02T15:40:58.686Z,31.00
2019-02-02T15:46:15.811Z,30.60
2019-02-02T15:49:01.914Z,31.00
2019-02-02T15:51:48.131Z,30.90
2019-02-02T15:54:34.612Z,31.10
2019-02-02T15:57:20.660Z,31.10
2019-02-02T16:00:18.996Z,31.10
2019-02-02T16:03:05.611Z,31.20
2019-02-02T16:05:51.896Z,31.10
2019-02-02T16:08:38.275Z,31.10
2019-02-02T16:11:24.156Z,31.20
2019-02-02T16:14:10.708Z,31.20
2019-02-02T16:16:58.217Z,31.10
2019-02-02T16:19:44.065Z,31.10
2019-02-02T16:22:42.411Z,31.10
2019-02-02T16:25:35.311Z,31.00
2019-02-02T16:28:25.164Z,31.00
2019-02-02T16:31:12.983Z,30.90
2019-02-02T16:34:02.094Z,30.80
2019-02-02T16:36:46.340Z,30.70
2019-02-02T16:39:32.796Z,30.60
2019-02-02T16:42:18.824Z,30.60
2019-02-02T16:45:07.655Z,30.60
2019-02-02T16:47:53.668Z,30.60
2019-02-02T16:50:39.627Z,30.60
2019-02-02T16:53:25.499Z,30.60
2019-02-02T16:56:11.287Z,30.70
2019-02-02T16:58:57.152Z,30.70
2019-02-02T17:01:43.607Z,30.80
2019-02-02T17:04:29.675Z,31.00
2019-02-02T17:07:15.584Z,30.90
2019-02-02T17:10:01.295Z,30.90
2019-02-02T17:12:47.815Z,30.90
2019-02-02T17:15:34.218Z,30.90
2019-02-02T17:18:20.515Z,30.80
2019-02-02T17:21:06.895Z,30.80
2019-02-02T17:23:53.247Z,30.80
2019-02-02T17:26:41.443Z,30.90
2019-02-02T17:29:27.012Z,30.90
2019-02-02T17:32:13.355Z,31.00
2019-02-02T17:34:59.407Z,31.00
2019-02-02T17:37:45.639Z,31.00
2019-02-02T17:40:31.944Z,31.00
2019-02-02T17:43:17.993Z,31.00
2019-02-02T17:46:05.439Z,31.00
2019-02-02T17:48:51.379Z,31.00
2019-02-02T17:51:37.625Z,31.00
2019-02-02T17:54:23.435Z,31.00
2019-02-02T17:57:09.407Z,30.90
2019-02-02T17:59:55.680Z,31.00
2019-02-02T18:02:42.103Z,31.00
2019-02-02T18:05:28.299Z,31.00
2019-02-02T18:08:14.556Z,31.10
2019-02-02T18:11:00.440Z,31.10
2019-02-02T18:13:46.470Z,31.10
2019-02-02T18:16:32.555Z,30.60
2019-02-02T18:19:18.475Z,30.90
2019-02-02T18:22:04.356Z,31.00
2019-02-02T18:24:50.719Z,31.00
2019-02-02T18:27:36.791Z,31.10
2019-02-02T18:30:23.231Z,31.30
2019-02-02T18:33:09.111Z,31.30
2019-02-02T18:35:54.979Z,31.40
2019-02-02T18:38:41.003Z,31.30
2019-02-02T18:41:26.831Z,31.20
2019-02-02T18:44:12.543Z,31.10
2019-02-02T18:46:58.507Z,31.30
2019-02-02T18:49:44.227Z,31.20
2019-02-02T18:52:30.093Z,31.40
2019-02-02T18:55:19.380Z,31.70
2019-02-02T18:58:05.459Z,31.60
2019-02-02T19:00:51.233Z,31.80
2019-02-02T19:03:37.508Z,31.80
2019-02-02T19:06:23.303Z,31.90
2019-02-02T19:09:09.498Z,31.90
2019-02-02T19:11:56.119Z,32.50
2019-02-02T19:14:42.642Z,32.70
2019-02-02T19:17:28.656Z,33.10
2019-02-02T19:20:16.939Z,33.60
2019-02-02T19:23:03.012Z,34.10
2019-02-02T19:25:50.515Z,34.50
2019-02-02T19:28:39.973Z,34.70
2019-02-02T19:31:24.511Z,34.90
2019-02-02T19:34:10.355Z,35.10
2019-02-02T19:36:56.831Z,35.30
2019-02-02T19:39:45.164Z,35.30
2019-02-02T19:42:31.396Z,35.40
2019-02-02T19:45:19.635Z,35.30
2019-02-02T19:48:05.231Z,35.10
2019-02-02T19:50:51.202Z,35.10
2019-02-02T19:53:37.552Z,35.10
2019-02-02T19:56:23.415Z,35.10
2019-02-02T19:59:09.797Z,35.00
2019-02-02T20:01:55.603Z,34.80
2019-02-02T20:04:41.887Z,34.80
2019-02-02T20:07:27.927Z,34.90
2019-02-02T20:10:15.255Z,34.60
2019-02-02T20:13:01.051Z,34.70
2019-02-02T20:15:46.956Z,34.50
2019-02-02T20:18:32.783Z,34.40
2019-02-02T20:21:19.067Z,34.40
2019-02-02T20:24:05.291Z,34.20
2019-02-02T20:26:51.057Z,34.30
2019-02-02T20:29:36.928Z,34.30
2019-02-02T20:32:22.894Z,34.20
2019-02-02T20:35:09.556Z,34.30
2019-02-02T20:37:55.619Z,34.30
2019-02-02T20:40:41.336Z,34.30
2019-02-02T20:43:27.323Z,34.40
2019-02-02T20:46:13.607Z,34.40
2019-02-02T20:49:00.129Z,34.30
2019-02-02T20:51:46.111Z,34.20
2019-02-02T20:54:32.520Z,34.00
2019-02-02T20:57:18.616Z,34.00
2019-02-02T21:00:08.304Z,33.80
2019-02-02T21:02:54.176Z,33.80
2019-02-02T21:05:51.610Z,33.80
2019-02-02T21:08:27.838Z,33.70
2019-02-02T21:11:13.815Z,33.70
2019-02-02T21:14:00.291Z,33.70
2019-02-02T21:16:46.279Z,33.70
2019-02-02T21:19:32.467Z,33.80
2019-02-02T21:22:18.523Z,33.80
2019-02-02T21:25:05.311Z,33.90
2019-02-02T21:27:51.406Z,33.90
2019-02-02T21:30:37.170Z,34.00
2019-02-02T21:33:23.647Z,34.00
2019-02-02T21:36:09.375Z,33.90
2019-02-02T21:38:55.375Z,33.70
2019-02-02T21:41:41.599Z,33.50
2019-02-02T21:44:27.343Z,33.40
2019-02-02T21:47:14.107Z,33.20
2019-02-02T21:50:00.267Z,33.00
2019-02-02T21:52:46.254Z,32.80
2019-02-02T21:55:32.323Z,32.90
2019-02-02T21:58:18.791Z,32.90
2019-02-02T22:01:05.159Z,32.80
2019-02-02T22:03:51.475Z,32.80
2019-02-02T22:06:37.251Z,32.90
2019-02-02T22:09:22.943Z,33.00
2019-02-02T22:12:09.439Z,33.00
2019-02-02T22:14:55.261Z,33.00
2019-02-02T22:17:41.583Z,33.00
2019-02-02T22:20:27.719Z,32.90
2019-02-02T22:23:13.591Z,32.90
2019-02-02T22:25:59.432Z,32.80
2019-02-02T22:28:45.671Z,32.80
2019-02-02T22:31:31.651Z,32.90
2019-02-02T22:34:17.667Z,32.90
2019-02-02T22:37:03.975Z,32.90
2019-02-02T22:39:49.833Z,32.90
2019-02-02T22:42:35.863Z,32.90
2019-02-02T22:45:21.760Z,32.90
2019-02-02T22:48:07.560Z,32.90
2019-02-02T22:50:53.471Z,32.80
2019-02-02T22:53:39.275Z,32.70
2019-02-02T22:56:25.535Z,32.70
2019-02-02T22:59:11.752Z,32.80
2019-02-02T23:02:02.900Z,32.80
2019-02-02T23:05:26.766Z,32.70
2019-02-02T23:08:47.551Z,32.80
2019-02-02T23:12:09.179Z,32.90
2019-02-02T23:15:35.557Z,32.80
2019-02-02T23:18:22.123Z,32.80
2019-02-02T23:21:08.377Z,32.80
2019-02-02T23:23:54.471Z,32.80
2019-02-02T23:26:40.353Z,33.00
2019-02-02T23:29:26.648Z,33.40
2019-02-02T23:32:12.615Z,33.30
2019-02-02T23:34:58.867Z,33.30
2019-02-02T23:37:44.883Z,33.40
2019-02-02T23:40:30.651Z,33.40
2019-02-02T23:43:17.082Z,33.30
2019-02-02T23:46:02.933Z,33.30
2019-02-02T23:49:02.275Z,33.20
2019-02-02T23:51:48.227Z,33.00
2019-02-02T23:54:34.116Z,33.00
2019-02-02T23:57:20.007Z,32.90
